Trinity — WDC2625 — position and weather

sailwx.info

Track history (hours):
 
Tides and Currents Weather Stations Pressure Air Temp Water Temp Dewpoint Dewpoint Depression Visibility Wind Speed Wind Dir Waves Ship Positions

Trinity

Owner: Kirby Inland Marine, LP, Houston, TX. More information available from US FCC via Universal Licensing System and Coast Guard Vessel Documentation Center.

Last reported at 2018-Feb-23 22:54 UTC. Time now 2018-Feb-24 02:34 UTC.
Position N 29°45' W 095°06'.

Length 23 m; draft 2.4 m.

Type: . MMSI: 366995730.

Date/timePositionNaut miles runAvg speedWind from/ knotsBaromVisibWave heightAir tempDewpointWater temp
2018-Feb-23 22:54N 29°45' W 095°06'0 0.0
2018-Feb-23 21:21N 29°45' W 095°06'0 0.0
2018-Feb-23 21:00N 29°45' W 095°06'0 0.0
2018-Feb-23 17:42N 29°46' W 095°06'2 0.1
2018-Feb-23 01:27N 29°47' W 095°05'0 0.1
2018-Feb-23 00:58N 29°47' W 095°05'3 0.2
2018-Feb-22 08:51N 29°45' W 095°06'2 5.1
2018-Feb-22 08:26N 29°44' W 095°09'4 0.7
2018-Feb-22 02:18N 29°44' W 095°13'3 3.7
2018-Feb-22 01:23N 29°45' W 095°10'3 0.1
2018-Feb-20 13:27N 29°43' W 095°13'3 0.2
2018-Feb-19 18:04N 29°45' W 095°10'5 1.5
2018-Feb-19 14:47N 29°47' W 095°05'0 0.0
2018-Feb-19 14:30N 29°47' W 095°05'0 0.5
2018-Feb-19 13:43N 29°47' W 095°04'0 1.3
2018-Feb-19 13:28N 29°47' W 095°04'0 0.0
2018-Feb-19 12:18N 29°47' W 095°05'0 0.0
2018-Feb-19 12:00N 29°47' W 095°05'0 0.0
2018-Feb-19 11:30N 29°47' W 095°05'2 3.1
2018-Feb-19 11:00N 29°46' W 095°06'3 5.9
2018-Feb-19 10:27N 29°44' W 095°09'1 2.2
2018-Feb-19 09:52N 29°45' W 095°10'1 3.5
2018-Feb-19 09:29N 29°44' W 095°09'3 4.9
2018-Feb-19 08:58N 29°45' W 095°06'2 3.7
2018-Feb-19 08:30N 29°45' W 095°04'2 4.8
2018-Feb-19 08:00N 29°44' W 095°02'0 0.7
2018-Feb-19 07:30N 29°44' W 095°01'0 0.1
2018-Feb-19 06:00N 29°44' W 095°01'0 0.0
2018-Feb-19 05:30N 29°44' W 095°01'1 0.2
2018-Feb-19 02:03N 29°44' W 095°02'0 4.8
2018-Feb-19 01:59N 29°44' W 095°03'4 5.0
2018-Feb-19 01:12N 29°44' W 095°07'4 0.5
2018-Feb-18 16:55N 29°47' W 095°04'0 0.0
2018-Feb-18 16:24N 29°47' W 095°04'0 0.0
2018-Feb-18 15:52N 29°47' W 095°04'0 0.0
2018-Feb-18 14:03N 29°47' W 095°04'3 0.7
2018-Feb-18 09:59N 29°45' W 095°06'0 0.0
2018-Feb-18 09:29N 29°45' W 095°06'2 0.9
2018-Feb-18 07:12N 29°46' W 095°05'1 3.8
2018-Feb-18 07:00N 29°46' W 095°05'0 0.3
2018-Feb-18 06:06N 29°46' W 095°04'0 1.5
2018-Feb-18 05:56N 29°46' W 095°04'2 4.2
2018-Feb-18 05:30N 29°45' W 095°06'0 0.1
2018-Feb-18 04:47N 29°45' W 095°06'0 0.8
2018-Feb-18 04:18N 29°44' W 095°06'2 6.3
2018-Feb-18 03:58N 29°44' W 095°09'4 0.7
2018-Feb-17 22:43N 29°46' W 095°05'1 0.2
2018-Feb-17 18:24N 29°47' W 095°05'1 0.6
2018-Feb-17 16:26N 29°46' W 095°05'3 6.1
2018-Feb-17 15:57N 29°44' W 095°08'2 0.9
2018-Feb-17 13:57N 29°45' W 095°10'5 0.3
2018-Feb-16 19:35N 29°47' W 095°04'0 0.0
2018-Feb-16 19:05N 29°47' W 095°04'0 0.0
2018-Feb-16 18:47N 29°47' W 095°04'0 0.0
2018-Feb-16 18:28N 29°47' W 095°04'0 0.0
2018-Feb-16 17:23N 29°47' W 095°04'0 0.0
2018-Feb-16 16:53N 29°47' W 095°04'0 0.4
2018-Feb-16 16:30N 29°47' W 095°04'0 0.7
2018-Feb-16 16:00N 29°47' W 095°04'2 3.3
2018-Feb-16 15:30N 29°46' W 095°05'2 2.3
2018-Feb-16 14:33N 29°44' W 095°07'0 5.8
2018-Feb-16 14:28N 29°44' W 095°07'2 0.3
2018-Feb-16 08:19N 29°46' W 095°05'2 3.2
2018-Feb-16 07:48N 29°47' W 095°04'1 1.4
2018-Feb-16 07:27N 29°47' W 095°05'0 0.0
2018-Feb-16 07:00N 29°47' W 095°05'0 0.0
2018-Feb-16 06:30N 29°47' W 095°05'0 0.0
2018-Feb-16 06:00N 29°47' W 095°05'0 0.0
2018-Feb-16 05:30N 29°47' W 095°05'0 0.0
2018-Feb-16 04:57N 29°47' W 095°05'0 0.0
2018-Feb-16 04:30N 29°47' W 095°05'0 0.0
2018-Feb-16 03:58N 29°47' W 095°05'0 0.0
2018-Feb-16 03:26N 29°47' W 095°05'0 0.0
2018-Feb-16 02:54N 29°47' W 095°05'0 0.0
2018-Feb-16 02:30N 29°47' W 095°05'0 0.0
2018-Feb-16 02:00N 29°47' W 095°05'0 0.0
2018-Feb-16 01:30N 29°47' W 095°05'1 1.1
2018-Feb-16 00:52N 29°46' W 095°05'3 6.9
2018-Feb-16 00:23N 29°44' W 095°08'4 0.6
2018-Feb-15 17:13N 29°47' W 095°04'0 0.1
2018-Feb-15 14:00N 29°47' W 095°04'0 0.0
2018-Feb-15 12:55N 29°47' W 095°04'0 0.0
2018-Feb-15 12:29N 29°47' W 095°04'2 1.1
2018-Feb-15 10:28N 29°45' W 095°06'2 1.2
2018-Feb-15 08:38N 29°44' W 095°08'0 0.0
2018-Feb-15 08:23N 29°44' W 095°08'0 0.0
2018-Feb-15 07:02N 29°44' W 095°08'0 0.0
2018-Feb-15 06:53N 29°44' W 095°08'0 0.0
2018-Feb-15 06:23N 29°44' W 095°08'0 0.0
2018-Feb-15 05:53N 29°44' W 095°08'  
Track history (hours):
 
Tides and Currents Weather Stations Pressure Air Temp Water Temp Dewpoint Dewpoint Depression Visibility Wind Speed Wind Dir Waves Ship Positions

Trinity

Owner: Kirby Inland Marine, LP, Houston, TX. More information available from US FCC via Universal Licensing System and Coast Guard Vessel Documentation Center.

Last reported at 2018-Feb-23 22:54 UTC. Time now 2018-Feb-24 02:34 UTC.
Position N 29°45' W 095°06'.

Length 23 m; draft 2.4 m.

Type: . MMSI: 366995730.

Date/timePositionNaut miles runAvg speedWind from/ knotsBaromVisibWave heightAir tempDewpointWater temp
2018-Feb-23 22:54N 29°45' W 095°06'0 0.0
2018-Feb-23 21:21N 29°45' W 095°06'0 0.0
2018-Feb-23 21:00N 29°45' W 095°06'0 0.0
2018-Feb-23 17:42N 29°46' W 095°06'2 0.1
2018-Feb-23 01:27N 29°47' W 095°05'0 0.1
2018-Feb-23 00:58N 29°47' W 095°05'3 0.2
2018-Feb-22 08:51N 29°45' W 095°06'2 5.1
2018-Feb-22 08:26N 29°44' W 095°09'4 0.7
2018-Feb-22 02:18N 29°44' W 095°13'3 3.7
2018-Feb-22 01:23N 29°45' W 095°10'3 0.1
2018-Feb-20 13:27N 29°43' W 095°13'3 0.2
2018-Feb-19 18:04N 29°45' W 095°10'5 1.5
2018-Feb-19 14:47N 29°47' W 095°05'0 0.0
2018-Feb-19 14:30N 29°47' W 095°05'0 0.5
2018-Feb-19 13:43N 29°47' W 095°04'0 1.3
2018-Feb-19 13:28N 29°47' W 095°04'0 0.0
2018-Feb-19 12:18N 29°47' W 095°05'0 0.0
2018-Feb-19 12:00N 29°47' W 095°05'0 0.0
2018-Feb-19 11:30N 29°47' W 095°05'2 3.1
2018-Feb-19 11:00N 29°46' W 095°06'3 5.9
2018-Feb-19 10:27N 29°44' W 095°09'1 2.2
2018-Feb-19 09:52N 29°45' W 095°10'1 3.5
2018-Feb-19 09:29N 29°44' W 095°09'3 4.9
2018-Feb-19 08:58N 29°45' W 095°06'2 3.7
2018-Feb-19 08:30N 29°45' W 095°04'2 4.8
2018-Feb-19 08:00N 29°44' W 095°02'0 0.7
2018-Feb-19 07:30N 29°44' W 095°01'0 0.1
2018-Feb-19 06:00N 29°44' W 095°01'0 0.0
2018-Feb-19 05:30N 29°44' W 095°01'1 0.2
2018-Feb-19 02:03N 29°44' W 095°02'0 4.8
2018-Feb-19 01:59N 29°44' W 095°03'4 5.0
2018-Feb-19 01:12N 29°44' W 095°07'4 0.5
2018-Feb-18 16:55N 29°47' W 095°04'0 0.0
2018-Feb-18 16:24N 29°47' W 095°04'0 0.0
2018-Feb-18 15:52N 29°47' W 095°04'0 0.0
2018-Feb-18 14:03N 29°47' W 095°04'3 0.7
2018-Feb-18 09:59N 29°45' W 095°06'0 0.0
2018-Feb-18 09:29N 29°45' W 095°06'2 0.9
2018-Feb-18 07:12N 29°46' W 095°05'1 3.8
2018-Feb-18 07:00N 29°46' W 095°05'0 0.3
2018-Feb-18 06:06N 29°46' W 095°04'0 1.5
2018-Feb-18 05:56N 29°46' W 095°04'2 4.2
2018-Feb-18 05:30N 29°45' W 095°06'0 0.1
2018-Feb-18 04:47N 29°45' W 095°06'0 0.8
2018-Feb-18 04:18N 29°44' W 095°06'2 6.3
2018-Feb-18 03:58N 29°44' W 095°09'4 0.7
2018-Feb-17 22:43N 29°46' W 095°05'1 0.2
2018-Feb-17 18:24N 29°47' W 095°05'1 0.6
2018-Feb-17 16:26N 29°46' W 095°05'3 6.1
2018-Feb-17 15:57N 29°44' W 095°08'2 0.9
2018-Feb-17 13:57N 29°45' W 095°10'5 0.3
2018-Feb-16 19:35N 29°47' W 095°04'0 0.0
2018-Feb-16 19:05N 29°47' W 095°04'0 0.0
2018-Feb-16 18:47N 29°47' W 095°04'0 0.0
2018-Feb-16 18:28N 29°47' W 095°04'0 0.0
2018-Feb-16 17:23N 29°47' W 095°04'0 0.0
2018-Feb-16 16:53N 29°47' W 095°04'0 0.4
2018-Feb-16 16:30N 29°47' W 095°04'0 0.7
2018-Feb-16 16:00N 29°47' W 095°04'2 3.3
2018-Feb-16 15:30N 29°46' W 095°05'2 2.3
2018-Feb-16 14:33N 29°44' W 095°07'0 5.8
2018-Feb-16 14:28N 29°44' W 095°07'2 0.3
2018-Feb-16 08:19N 29°46' W 095°05'2 3.2
2018-Feb-16 07:48N 29°47' W 095°04'1 1.4
2018-Feb-16 07:27N 29°47' W 095°05'0 0.0
2018-Feb-16 07:00N 29°47' W 095°05'0 0.0
2018-Feb-16 06:30N 29°47' W 095°05'0 0.0
2018-Feb-16 06:00N 29°47' W 095°05'0 0.0
2018-Feb-16 05:30N 29°47' W 095°05'0 0.0
2018-Feb-16 04:57N 29°47' W 095°05'0 0.0
2018-Feb-16 04:30N 29°47' W 095°05'0 0.0
2018-Feb-16 03:58N 29°47' W 095°05'0 0.0
2018-Feb-16 03:26N 29°47' W 095°05'0 0.0
2018-Feb-16 02:54N 29°47' W 095°05'0 0.0
2018-Feb-16 02:30N 29°47' W 095°05'0 0.0
2018-Feb-16 02:00N 29°47' W 095°05'0 0.0
2018-Feb-16 01:30N 29°47' W 095°05'1 1.1
2018-Feb-16 00:52N 29°46' W 095°05'3 6.9
2018-Feb-16 00:23N 29°44' W 095°08'4 0.6
2018-Feb-15 17:13N 29°47' W 095°04'0 0.1
2018-Feb-15 14:00N 29°47' W 095°04'0 0.0
2018-Feb-15 12:55N 29°47' W 095°04'0 0.0
2018-Feb-15 12:29N 29°47' W 095°04'2 1.1
2018-Feb-15 10:28N 29°45' W 095°06'2 1.2
2018-Feb-15 08:38N 29°44' W 095°08'0 0.0
2018-Feb-15 08:23N 29°44' W 095°08'0 0.0
2018-Feb-15 07:02N 29°44' W 095°08'0 0.0
2018-Feb-15 06:53N 29°44' W 095°08'0 0.0
2018-Feb-15 06:23N 29°44' W 095°08'0 0.0
2018-Feb-15 05:53N 29°44' W 095°08'  

Dump ship's entire track history